sensor_id;sensor_type;location;lat;lon;timestamp;P1;durP1;ratioP1;P2;durP2;ratioP2
20379;SDS011;10349;48.666;8.948;2023-04-29T00:01:25;5.30;;;4.90;;
20379;SDS011;10349;48.666;8.948;2023-04-29T00:03:51;5.60;;;4.03;;
20379;SDS011;10349;48.666;8.948;2023-04-29T00:06:17;5.60;;;4.40;;
20379;SDS011;10349;48.666;8.948;2023-04-29T00:08:43;4.63;;;4.23;;
20379;SDS011;10349;48.666;8.948;2023-04-29T00:11:08;3.70;;;3.50;;
20379;SDS011;10349;48.666;8.948;2023-04-29T00:13:35;5.07;;;4.63;;
20379;SDS011;10349;48.666;8.948;2023-04-29T00:16:03;4.40;;;4.10;;
20379;SDS011;10349;48.666;8.948;2023-04-29T00:18:29;9.57;;;4.13;;
20379;SDS011;10349;48.666;8.948;2023-04-29T00:20:56;4.43;;;4.00;;
20379;SDS011;10349;48.666;8.948;2023-04-29T00:23:22;4.90;;;4.50;;
20379;SDS011;10349;48.666;8.948;2023-04-29T00:25:47;5.30;;;4.43;;
20379;SDS011;10349;48.666;8.948;2023-04-29T00:28:14;4.90;;;4.50;;
20379;SDS011;10349;48.666;8.948;2023-04-29T00:30:39;5.03;;;4.63;;
20379;SDS011;10349;48.666;8.948;2023-04-29T00:33:05;4.80;;;4.40;;
20379;SDS011;10349;48.666;8.948;2023-04-29T00:35:31;4.93;;;4.40;;
20379;SDS011;10349;48.666;8.948;2023-04-29T00:37:57;3.73;;;3.43;;
20379;SDS011;10349;48.666;8.948;2023-04-29T00:40:22;4.27;;;3.97;;
20379;SDS011;10349;48.666;8.948;2023-04-29T00:42:48;4.17;;;3.63;;
20379;SDS011;10349;48.666;8.948;2023-04-29T00:45:14;3.77;;;3.57;;
20379;SDS011;10349;48.666;8.948;2023-04-29T00:47:40;3.70;;;3.40;;
20379;SDS011;10349;48.666;8.948;2023-04-29T00:50:06;3.63;;;3.33;;
20379;SDS011;10349;48.666;8.948;2023-04-29T00:52:33;3.80;;;3.50;;
20379;SDS011;10349;48.666;8.948;2023-04-29T00:54:59;3.60;;;3.30;;
20379;SDS011;10349;48.666;8.948;2023-04-29T00:57:25;3.93;;;3.60;;
20379;SDS011;10349;48.666;8.948;2023-04-29T00:59:57;3.50;;;3.30;;
20379;SDS011;10349;48.666;8.948;2023-04-29T01:02:23;4.20;;;3.73;;
20379;SDS011;10349;48.666;8.948;2023-04-29T01:04:50;3.40;;;3.20;;
20379;SDS011;10349;48.666;8.948;2023-04-29T01:07:17;3.50;;;3.20;;
20379;SDS011;10349;48.666;8.948;2023-04-29T01:17:43;3.37;;;3.17;;
20379;SDS011;10349;48.666;8.948;2023-04-29T01:20:12;2.97;;;2.80;;
20379;SDS011;10349;48.666;8.948;2023-04-29T01:22:39;2.97;;;2.77;;
20379;SDS011;10349;48.666;8.948;2023-04-29T01:25:05;4.40;;;4.00;;
20379;SDS011;10349;48.666;8.948;2023-04-29T01:27:44;3.53;;;3.23;;
20379;SDS011;10349;48.666;8.948;2023-04-29T01:36:36;3.40;;;3.20;;
20379;SDS011;10349;48.666;8.948;2023-04-29T01:42:09;4.70;;;3.80;;
20379;SDS011;10349;48.666;8.948;2023-04-29T01:44:44;3.30;;;3.10;;
20379;SDS011;10349;48.666;8.948;2023-04-29T01:47:14;6.83;;;3.10;;
20379;SDS011;10349;48.666;8.948;2023-04-29T01:49:45;5.10;;;3.40;;
20379;SDS011;10349;48.666;8.948;2023-04-29T01:52:11;3.50;;;3.30;;
20379;SDS011;10349;48.666;8.948;2023-04-29T01:54:38;3.33;;;3.03;;
20379;SDS011;10349;48.666;8.948;2023-04-29T01:57:04;3.23;;;2.93;;
20379;SDS011;10349;48.666;8.948;2023-04-29T01:59:42;3.70;;;3.40;;
20379;SDS011;10349;48.666;8.948;2023-04-29T02:02:33;3.17;;;3.00;;
20379;SDS011;10349;48.666;8.948;2023-04-29T02:05:11;4.33;;;3.93;;
20379;SDS011;10349;48.666;8.948;2023-04-29T02:07:40;3.27;;;3.07;;
20379;SDS011;10349;48.666;8.948;2023-04-29T02:10:08;3.40;;;3.20;;
20379;SDS011;10349;48.666;8.948;2023-04-29T02:12:38;3.00;;;2.80;;
20379;SDS011;10349;48.666;8.948;2023-04-29T02:15:04;3.17;;;2.97;;
20379;SDS011;10349;48.666;8.948;2023-04-29T02:17:32;4.00;;;3.70;;
20379;SDS011;10349;48.666;8.948;2023-04-29T02:19:58;3.30;;;3.10;;
20379;SDS011;10349;48.666;8.948;2023-04-29T02:22:24;3.30;;;3.10;;
20379;SDS011;10349;48.666;8.948;2023-04-29T02:24:50;3.50;;;3.20;;
20379;SDS011;10349;48.666;8.948;2023-04-29T02:27:16;3.30;;;3.00;;
20379;SDS011;10349;48.666;8.948;2023-04-29T02:29:42;3.27;;;3.00;;
20379;SDS011;10349;48.666;8.948;2023-04-29T02:32:08;3.00;;;2.73;;
20379;SDS011;10349;48.666;8.948;2023-04-29T02:34:36;2.87;;;2.77;;
20379;SDS011;10349;48.666;8.948;2023-04-29T02:37:02;3.60;;;3.10;;
20379;SDS011;10349;48.666;8.948;2023-04-29T02:39:28;2.97;;;2.73;;
20379;SDS011;10349;48.666;8.948;2023-04-29T02:41:54;3.07;;;2.87;;
20379;SDS011;10349;48.666;8.948;2023-04-29T02:44:20;3.13;;;2.93;;
20379;SDS011;10349;48.666;8.948;2023-04-29T02:46:46;3.20;;;3.00;;
20379;SDS011;10349;48.666;8.948;2023-04-29T02:49:12;3.07;;;2.87;;
20379;SDS011;10349;48.666;8.948;2023-04-29T02:51:38;3.43;;;3.23;;
20379;SDS011;10349;48.666;8.948;2023-04-29T02:54:04;2.47;;;2.37;;
20379;SDS011;10349;48.666;8.948;2023-04-29T02:56:30;2.90;;;2.70;;
20379;SDS011;10349;48.666;8.948;2023-04-29T02:58:56;3.00;;;2.80;;
20379;SDS011;10349;48.666;8.948;2023-04-29T03:01:22;2.80;;;2.60;;
20379;SDS011;10349;48.666;8.948;2023-04-29T03:03:48;2.90;;;2.70;;
20379;SDS011;10349;48.666;8.948;2023-04-29T03:06:14;2.47;;;2.37;;
20379;SDS011;10349;48.666;8.948;2023-04-29T03:08:40;2.53;;;2.37;;
20379;SDS011;10349;48.666;8.948;2023-04-29T03:11:06;3.30;;;3.10;;
20379;SDS011;10349;48.666;8.948;2023-04-29T03:13:32;2.70;;;2.53;;
20379;SDS011;10349;48.666;8.948;2023-04-29T03:15:58;3.47;;;3.27;;
20379;SDS011;10349;48.666;8.948;2023-04-29T03:18:24;3.63;;;3.03;;
20379;SDS011;10349;48.666;8.948;2023-04-29T03:20:50;2.70;;;2.50;;
20379;SDS011;10349;48.666;8.948;2023-04-29T03:23:16;3.00;;;2.80;;
20379;SDS011;10349;48.666;8.948;2023-04-29T03:25:42;3.37;;;3.10;;
20379;SDS011;10349;48.666;8.948;2023-04-29T03:28:07;2.97;;;2.77;;
20379;SDS011;10349;48.666;8.948;2023-04-29T03:30:33;2.53;;;2.37;;
20379;SDS011;10349;48.666;8.948;2023-04-29T03:32:59;4.10;;;3.00;;
20379;SDS011;10349;48.666;8.948;2023-04-29T03:35:27;2.87;;;2.67;;
20379;SDS011;10349;48.666;8.948;2023-04-29T03:38:13;2.87;;;2.67;;
20379;SDS011;10349;48.666;8.948;2023-04-29T03:40:39;2.50;;;2.40;;
20379;SDS011;10349;48.666;8.948;2023-04-29T03:43:04;4.27;;;2.80;;
20379;SDS011;10349;48.666;8.948;2023-04-29T03:45:33;3.00;;;2.80;;
20379;SDS011;10349;48.666;8.948;2023-04-29T03:47:59;3.93;;;3.53;;
20379;SDS011;10349;48.666;8.948;2023-04-29T03:50:25;2.77;;;2.57;;
20379;SDS011;10349;48.666;8.948;2023-04-29T03:52:51;2.97;;;2.77;;
20379;SDS011;10349;48.666;8.948;2023-04-29T03:55:18;3.80;;;3.50;;
20379;SDS011;10349;48.666;8.948;2023-04-29T03:57:43;2.83;;;2.73;;
20379;SDS011;10349;48.666;8.948;2023-04-29T04:00:11;3.00;;;2.80;;
20379;SDS011;10349;48.666;8.948;2023-04-29T04:02:43;2.90;;;2.70;;
20379;SDS011;10349;48.666;8.948;2023-04-29T04:05:09;3.00;;;2.80;;
20379;SDS011;10349;48.666;8.948;2023-04-29T04:07:36;2.80;;;2.60;;
20379;SDS011;10349;48.666;8.948;2023-04-29T04:10:33;2.97;;;2.77;;
20379;SDS011;10349;48.666;8.948;2023-04-29T04:13:03;4.40;;;4.00;;
20379;SDS011;10349;48.666;8.948;2023-04-29T04:15:29;2.60;;;2.40;;
20379;SDS011;10349;48.666;8.948;2023-04-29T04:17:55;2.83;;;2.63;;
20379;SDS011;10349;48.666;8.948;2023-04-29T04:20:21;3.30;;;3.10;;
20379;SDS011;10349;48.666;8.948;2023-04-29T04:22:48;2.73;;;2.63;;
20379;SDS011;10349;48.666;8.948;2023-04-29T04:25:23;3.47;;;2.77;;
20379;SDS011;10349;48.666;8.948;2023-04-29T04:27:50;3.10;;;2.90;;
20379;SDS011;10349;48.666;8.948;2023-04-29T04:30:28;3.70;;;3.40;;
20379;SDS011;10349;48.666;8.948;2023-04-29T04:32:54;2.47;;;2.30;;
20379;SDS011;10349;48.666;8.948;2023-04-29T04:35:20;3.07;;;2.77;;
20379;SDS011;10349;48.666;8.948;2023-04-29T04:37:46;2.93;;;2.73;;
20379;SDS011;10349;48.666;8.948;2023-04-29T04:40:11;3.33;;;3.13;;
20379;SDS011;10349;48.666;8.948;2023-04-29T04:42:57;2.83;;;2.63;;
20379;SDS011;10349;48.666;8.948;2023-04-29T04:45:23;3.07;;;2.87;;
20379;SDS011;10349;48.666;8.948;2023-04-29T04:47:49;3.10;;;2.90;;
20379;SDS011;10349;48.666;8.948;2023-04-29T04:50:28;2.93;;;2.73;;
20379;SDS011;10349;48.666;8.948;2023-04-29T04:52:54;3.07;;;2.87;;
20379;SDS011;10349;48.666;8.948;2023-04-29T04:55:47;4.10;;;3.67;;
20379;SDS011;10349;48.666;8.948;2023-04-29T04:58:14;3.43;;;3.23;;
20379;SDS011;10349;48.666;8.948;2023-04-29T05:00:42;3.30;;;3.10;;
20379;SDS011;10349;48.666;8.948;2023-04-29T05:03:09;4.70;;;2.90;;
20379;SDS011;10349;48.666;8.948;2023-04-29T05:05:35;3.50;;;3.30;;
20379;SDS011;10349;48.666;8.948;2023-04-29T05:08:00;3.40;;;3.20;;
20379;SDS011;10349;48.666;8.948;2023-04-29T05:10:36;3.27;;;3.07;;
20379;SDS011;10349;48.666;8.948;2023-04-29T05:13:03;4.17;;;3.07;;
20379;SDS011;10349;48.666;8.948;2023-04-29T05:15:29;4.10;;;3.67;;
20379;SDS011;10349;48.666;8.948;2023-04-29T05:17:58;4.07;;;3.77;;
20379;SDS011;10349;48.666;8.948;2023-04-29T05:20:24;5.80;;;3.80;;
20379;SDS011;10349;48.666;8.948;2023-04-29T05:22:50;3.67;;;3.37;;
20379;SDS011;10349;48.666;8.948;2023-04-29T05:25:16;4.00;;;3.70;;
20379;SDS011;10349;48.666;8.948;2023-04-29T05:27:41;3.40;;;3.20;;
20379;SDS011;10349;48.666;8.948;2023-04-29T05:30:11;3.80;;;3.50;;
20379;SDS011;10349;48.666;8.948;2023-04-29T05:32:37;4.43;;;3.40;;
20379;SDS011;10349;48.666;8.948;2023-04-29T05:35:05;4.90;;;4.50;;
20379;SDS011;10349;48.666;8.948;2023-04-29T05:37:30;4.40;;;4.10;;
20379;SDS011;10349;48.666;8.948;2023-04-29T05:40:06;4.70;;;4.37;;
20379;SDS011;10349;48.666;8.948;2023-04-29T05:42:33;3.60;;;3.40;;
20379;SDS011;10349;48.666;8.948;2023-04-29T05:44:59;3.80;;;3.60;;
20379;SDS011;10349;48.666;8.948;2023-04-29T05:47:26;3.90;;;3.53;;
20379;SDS011;10349;48.666;8.948;2023-04-29T05:49:51;3.50;;;3.30;;
20379;SDS011;10349;48.666;8.948;2023-04-29T05:52:17;2.43;;;2.23;;
20379;SDS011;10349;48.666;8.948;2023-04-29T05:54:46;2.87;;;2.77;;
20379;SDS011;10349;48.666;8.948;2023-04-29T05:57:12;2.90;;;2.70;;
20379;SDS011;10349;48.666;8.948;2023-04-29T05:59:39;2.97;;;2.77;;
20379;SDS011;10349;48.666;8.948;2023-04-29T06:02:04;3.93;;;2.90;;
20379;SDS011;10349;48.666;8.948;2023-04-29T06:04:31;2.30;;;2.20;;
20379;SDS011;10349;48.666;8.948;2023-04-29T06:07:16;2.90;;;2.70;;
20379;SDS011;10349;48.666;8.948;2023-04-29T06:10:04;2.30;;;2.20;;
20379;SDS011;10349;48.666;8.948;2023-04-29T06:12:32;2.97;;;2.77;;
20379;SDS011;10349;48.666;8.948;2023-04-29T06:14:58;2.90;;;2.70;;
20379;SDS011;10349;48.666;8.948;2023-04-29T06:17:24;3.00;;;2.80;;
20379;SDS011;10349;48.666;8.948;2023-04-29T06:19:50;2.73;;;2.53;;
20379;SDS011;10349;48.666;8.948;2023-04-29T06:22:16;3.03;;;2.83;;
20379;SDS011;10349;48.666;8.948;2023-04-29T06:24:47;2.90;;;2.70;;
20379;SDS011;10349;48.666;8.948;2023-04-29T06:27:19;2.60;;;2.40;;
20379;SDS011;10349;48.666;8.948;2023-04-29T06:29:45;2.73;;;2.63;;
20379;SDS011;10349;48.666;8.948;2023-04-29T06:32:11;3.20;;;2.90;;
20379;SDS011;10349;48.666;8.948;2023-04-29T06:34:38;5.33;;;2.20;;
20379;SDS011;10349;48.666;8.948;2023-04-29T06:37:28;2.33;;;2.13;;
20379;SDS011;10349;48.666;8.948;2023-04-29T06:40:09;2.60;;;2.40;;
20379;SDS011;10349;48.666;8.948;2023-04-29T06:42:58;2.27;;;2.07;;
20379;SDS011;10349;48.666;8.948;2023-04-29T06:45:44;2.00;;;1.80;;
20379;SDS011;10349;48.666;8.948;2023-04-29T06:48:26;2.40;;;2.20;;
20379;SDS011;10349;48.666;8.948;2023-04-29T06:50:52;2.30;;;2.10;;
20379;SDS011;10349;48.666;8.948;2023-04-29T06:53:19;2.40;;;2.30;;
20379;SDS011;10349;48.666;8.948;2023-04-29T06:55:45;2.30;;;2.20;;
20379;SDS011;10349;48.666;8.948;2023-04-29T06:58:11;2.30;;;2.20;;
20379;SDS011;10349;48.666;8.948;2023-04-29T07:00:38;2.10;;;2.00;;
20379;SDS011;10349;48.666;8.948;2023-04-29T07:03:05;2.53;;;2.40;;
20379;SDS011;10349;48.666;8.948;2023-04-29T07:05:31;2.07;;;1.80;;
20379;SDS011;10349;48.666;8.948;2023-04-29T07:07:56;3.00;;;2.80;;
20379;SDS011;10349;48.666;8.948;2023-04-29T07:10:23;2.60;;;2.40;;
20379;SDS011;10349;48.666;8.948;2023-04-29T07:12:52;2.07;;;1.97;;
20379;SDS011;10349;48.666;8.948;2023-04-29T07:15:18;2.63;;;2.43;;
20379;SDS011;10349;48.666;8.948;2023-04-29T07:17:43;2.80;;;2.60;;
20379;SDS011;10349;48.666;8.948;2023-04-29T07:20:09;2.37;;;2.17;;
20379;SDS011;10349;48.666;8.948;2023-04-29T07:22:36;2.90;;;2.70;;
20379;SDS011;10349;48.666;8.948;2023-04-29T07:25:02;2.43;;;2.23;;
20379;SDS011;10349;48.666;8.948;2023-04-29T07:27:28;2.60;;;1.90;;
20379;SDS011;10349;48.666;8.948;2023-04-29T07:29:54;2.20;;;2.00;;
20379;SDS011;10349;48.666;8.948;2023-04-29T07:32:20;4.23;;;2.63;;
20379;SDS011;10349;48.666;8.948;2023-04-29T07:34:46;3.70;;;2.70;;
20379;SDS011;10349;48.666;8.948;2023-04-29T07:37:13;2.73;;;2.00;;
20379;SDS011;10349;48.666;8.948;2023-04-29T07:39:39;2.60;;;2.40;;
20379;SDS011;10349;48.666;8.948;2023-04-29T07:42:07;1.90;;;1.80;;
20379;SDS011;10349;48.666;8.948;2023-04-29T07:44:32;1.90;;;1.80;;
20379;SDS011;10349;48.666;8.948;2023-04-29T07:46:58;2.90;;;2.50;;
20379;SDS011;10349;48.666;8.948;2023-04-29T07:49:24;4.30;;;2.00;;
20379;SDS011;10349;48.666;8.948;2023-04-29T07:51:50;1.70;;;1.60;;
20379;SDS011;10349;48.666;8.948;2023-04-29T07:54:16;1.90;;;1.80;;
20379;SDS011;10349;48.666;8.948;2023-04-29T07:56:43;1.93;;;1.83;;
20379;SDS011;10349;48.666;8.948;2023-04-29T07:59:09;2.10;;;2.00;;
20379;SDS011;10349;48.666;8.948;2023-04-29T08:01:35;1.73;;;1.63;;
20379;SDS011;10349;48.666;8.948;2023-04-29T08:04:01;1.90;;;1.80;;
20379;SDS011;10349;48.666;8.948;2023-04-29T08:06:27;2.27;;;2.07;;
20379;SDS011;10349;48.666;8.948;2023-04-29T08:08:53;6.07;;;2.07;;
20379;SDS011;10349;48.666;8.948;2023-04-29T08:11:20;1.70;;;1.60;;
20379;SDS011;10349;48.666;8.948;2023-04-29T08:13:48;2.70;;;2.10;;
20379;SDS011;10349;48.666;8.948;2023-04-29T08:16:15;1.80;;;1.70;;
20379;SDS011;10349;48.666;8.948;2023-04-29T08:18:41;1.80;;;1.70;;
20379;SDS011;10349;48.666;8.948;2023-04-29T08:21:07;1.93;;;1.83;;
20379;SDS011;10349;48.666;8.948;2023-04-29T08:23:35;2.00;;;1.90;;
20379;SDS011;10349;48.666;8.948;2023-04-29T08:26:04;1.97;;;1.83;;
20379;SDS011;10349;48.666;8.948;2023-04-29T08:28:30;2.10;;;1.87;;
20379;SDS011;10349;48.666;8.948;2023-04-29T08:30:56;1.90;;;1.80;;
20379;SDS011;10349;48.666;8.948;2023-04-29T08:33:21;2.50;;;1.77;;
20379;SDS011;10349;48.666;8.948;2023-04-29T08:35:48;1.70;;;1.60;;
20379;SDS011;10349;48.666;8.948;2023-04-29T08:38:14;1.70;;;1.60;;
20379;SDS011;10349;48.666;8.948;2023-04-29T08:40:43;1.60;;;1.50;;
20379;SDS011;10349;48.666;8.948;2023-04-29T08:43:11;1.70;;;1.60;;
20379;SDS011;10349;48.666;8.948;2023-04-29T08:45:39;1.90;;;1.80;;
20379;SDS011;10349;48.666;8.948;2023-04-29T08:48:06;1.47;;;1.37;;
20379;SDS011;10349;48.666;8.948;2023-04-29T08:50:35;1.83;;;1.73;;
20379;SDS011;10349;48.666;8.948;2023-04-29T08:53:06;2.33;;;1.80;;
20379;SDS011;10349;48.666;8.948;2023-04-29T08:55:36;1.83;;;1.67;;
20379;SDS011;10349;48.666;8.948;2023-04-29T08:58:11;2.90;;;2.70;;
20379;SDS011;10349;48.666;8.948;2023-04-29T09:00:39;1.67;;;1.57;;
20379;SDS011;10349;48.666;8.948;2023-04-29T09:03:23;1.87;;;1.40;;
20379;SDS011;10349;48.666;8.948;2023-04-29T09:05:52;3.47;;;1.83;;
20379;SDS011;10349;48.666;8.948;2023-04-29T09:08:20;1.40;;;1.30;;
20379;SDS011;10349;48.666;8.948;2023-04-29T09:10:48;2.40;;;1.67;;
20379;SDS011;10349;48.666;8.948;2023-04-29T09:13:32;1.40;;;1.30;;
20379;SDS011;10349;48.666;8.948;2023-04-29T09:15:58;1.70;;;1.60;;
20379;SDS011;10349;48.666;8.948;2023-04-29T09:21:13;2.00;;;1.90;;
20379;SDS011;10349;48.666;8.948;2023-04-29T09:23:39;1.87;;;1.77;;
20379;SDS011;10349;48.666;8.948;2023-04-29T09:26:06;2.70;;;2.00;;
20379;SDS011;10349;48.666;8.948;2023-04-29T09:28:31;2.10;;;1.90;;
20379;SDS011;10349;48.666;8.948;2023-04-29T09:30:57;2.27;;;2.07;;
20379;SDS011;10349;48.666;8.948;2023-04-29T09:33:23;1.77;;;1.67;;
20379;SDS011;10349;48.666;8.948;2023-04-29T09:35:52;2.07;;;1.90;;
20379;SDS011;10349;48.666;8.948;2023-04-29T09:38:18;3.40;;;2.10;;
20379;SDS011;10349;48.666;8.948;2023-04-29T09:40:46;2.87;;;2.57;;
20379;SDS011;10349;48.666;8.948;2023-04-29T09:43:13;2.97;;;2.77;;
20379;SDS011;10349;48.666;8.948;2023-04-29T09:45:41;2.37;;;2.20;;
20379;SDS011;10349;48.666;8.948;2023-04-29T09:48:08;2.60;;;2.50;;
20379;SDS011;10349;48.666;8.948;2023-04-29T09:50:35;2.33;;;2.17;;
20379;SDS011;10349;48.666;8.948;2023-04-29T09:53:04;2.90;;;2.70;;
20379;SDS011;10349;48.666;8.948;2023-04-29T09:58:26;2.60;;;2.40;;
20379;SDS011;10349;48.666;8.948;2023-04-29T10:00:58;3.90;;;3.60;;
20379;SDS011;10349;48.666;8.948;2023-04-29T10:03:31;2.37;;;2.23;;
20379;SDS011;10349;48.666;8.948;2023-04-29T10:05:59;3.67;;;2.70;;
20379;SDS011;10349;48.666;8.948;2023-04-29T10:08:26;2.83;;;2.63;;
20379;SDS011;10349;48.666;8.948;2023-04-29T10:10:53;3.00;;;2.80;;
20379;SDS011;10349;48.666;8.948;2023-04-29T10:13:25;2.63;;;2.43;;
20379;SDS011;10349;48.666;8.948;2023-04-29T10:18:52;2.20;;;2.10;;
20379;SDS011;10349;48.666;8.948;2023-04-29T10:21:23;3.03;;;2.83;;
20379;SDS011;10349;48.666;8.948;2023-04-29T10:23:53;2.97;;;2.77;;
20379;SDS011;10349;48.666;8.948;2023-04-29T10:26:21;2.60;;;2.50;;
20379;SDS011;10349;48.666;8.948;2023-04-29T10:28:53;2.73;;;2.33;;
20379;SDS011;10349;48.666;8.948;2023-04-29T10:31:20;2.60;;;2.50;;
20379;SDS011;10349;48.666;8.948;2023-04-29T10:33:47;3.00;;;2.80;;
20379;SDS011;10349;48.666;8.948;2023-04-29T10:36:14;2.17;;;2.07;;
20379;SDS011;10349;48.666;8.948;2023-04-29T10:38:42;2.10;;;2.00;;
20379;SDS011;10349;48.666;8.948;2023-04-29T10:41:18;2.90;;;2.70;;
20379;SDS011;10349;48.666;8.948;2023-04-29T10:43:49;5.10;;;2.40;;
20379;SDS011;10349;48.666;8.948;2023-04-29T10:48:45;2.47;;;2.37;;
20379;SDS011;10349;48.666;8.948;2023-04-29T10:51:12;2.63;;;2.43;;
20379;SDS011;10349;48.666;8.948;2023-04-29T10:54:00;1.97;;;1.87;;
20379;SDS011;10349;48.666;8.948;2023-04-29T10:56:36;2.63;;;2.30;;
20379;SDS011;10349;48.666;8.948;2023-04-29T10:59:03;2.60;;;2.40;;
20379;SDS011;10349;48.666;8.948;2023-04-29T11:01:39;2.07;;;1.97;;
20379;SDS011;10349;48.666;8.948;2023-04-29T11:04:06;2.00;;;1.90;;
20379;SDS011;10349;48.666;8.948;2023-04-29T11:09:08;2.53;;;2.43;;
20379;SDS011;10349;48.666;8.948;2023-04-29T11:14:09;2.50;;;2.30;;
20379;SDS011;10349;48.666;8.948;2023-04-29T11:16:36;2.43;;;2.23;;
20379;SDS011;10349;48.666;8.948;2023-04-29T11:19:03;2.90;;;2.10;;
20379;SDS011;10349;48.666;8.948;2023-04-29T11:21:35;2.43;;;2.30;;
20379;SDS011;10349;48.666;8.948;2023-04-29T11:24:05;3.23;;;3.00;;
20379;SDS011;10349;48.666;8.948;2023-04-29T11:26:31;2.40;;;2.30;;
20379;SDS011;10349;48.666;8.948;2023-04-29T11:28:58;4.10;;;2.50;;
20379;SDS011;10349;48.666;8.948;2023-04-29T11:31:34;2.57;;;2.37;;
20379;SDS011;10349;48.666;8.948;2023-04-29T11:33:59;2.50;;;2.40;;
20379;SDS011;10349;48.666;8.948;2023-04-29T11:36:27;3.13;;;2.83;;
20379;SDS011;10349;48.666;8.948;2023-04-29T11:38:56;3.20;;;3.00;;
20379;SDS011;10349;48.666;8.948;2023-04-29T11:41:25;3.10;;;2.90;;
20379;SDS011;10349;48.666;8.948;2023-04-29T11:44:10;2.73;;;2.53;;
20379;SDS011;10349;48.666;8.948;2023-04-29T11:46:36;2.13;;;2.03;;
20379;SDS011;10349;48.666;8.948;2023-04-29T11:49:02;2.73;;;2.53;;
20379;SDS011;10349;48.666;8.948;2023-04-29T11:51:27;2.07;;;1.97;;
20379;SDS011;10349;48.666;8.948;2023-04-29T11:53:55;3.70;;;3.40;;
20379;SDS011;10349;48.666;8.948;2023-04-29T11:56:22;3.40;;;3.20;;
20379;SDS011;10349;48.666;8.948;2023-04-29T11:58:54;4.87;;;2.50;;
20379;SDS011;10349;48.666;8.948;2023-04-29T12:01:20;2.47;;;2.27;;
20379;SDS011;10349;48.666;8.948;2023-04-29T12:03:50;2.90;;;2.70;;
20379;SDS011;10349;48.666;8.948;2023-04-29T12:06:15;2.33;;;2.23;;
20379;SDS011;10349;48.666;8.948;2023-04-29T12:08:41;2.67;;;2.20;;
20379;SDS011;10349;48.666;8.948;2023-04-29T12:11:07;2.23;;;2.13;;
20379;SDS011;10349;48.666;8.948;2023-04-29T12:13:33;2.50;;;2.40;;
20379;SDS011;10349;48.666;8.948;2023-04-29T12:16:02;5.47;;;2.90;;
20379;SDS011;10349;48.666;8.948;2023-04-29T12:18:31;3.33;;;2.43;;
20379;SDS011;10349;48.666;8.948;2023-04-29T12:20:57;2.73;;;2.53;;
20379;SDS011;10349;48.666;8.948;2023-04-29T12:23:23;2.83;;;2.47;;
20379;SDS011;10349;48.666;8.948;2023-04-29T12:25:52;2.53;;;2.33;;
20379;SDS011;10349;48.666;8.948;2023-04-29T12:28:21;2.50;;;2.10;;
20379;SDS011;10349;48.666;8.948;2023-04-29T12:30:49;2.13;;;2.00;;
20379;SDS011;10349;48.666;8.948;2023-04-29T12:33:20;2.73;;;2.53;;
20379;SDS011;10349;48.666;8.948;2023-04-29T12:35:51;1.77;;;1.67;;
20379;SDS011;10349;48.666;8.948;2023-04-29T12:38:19;1.67;;;1.57;;
20379;SDS011;10349;48.666;8.948;2023-04-29T12:40:47;2.30;;;2.20;;
20379;SDS011;10349;48.666;8.948;2023-04-29T12:43:13;1.80;;;1.70;;
20379;SDS011;10349;48.666;8.948;2023-04-29T12:45:39;2.23;;;2.13;;
20379;SDS011;10349;48.666;8.948;2023-04-29T12:48:05;1.87;;;1.77;;
20379;SDS011;10349;48.666;8.948;2023-04-29T12:50:34;1.90;;;1.80;;
20379;SDS011;10349;48.666;8.948;2023-04-29T12:53:06;2.60;;;2.40;;
20379;SDS011;10349;48.666;8.948;2023-04-29T12:55:33;2.50;;;2.30;;
20379;SDS011;10349;48.666;8.948;2023-04-29T12:58:03;4.27;;;3.37;;
20379;SDS011;10349;48.666;8.948;2023-04-29T13:00:30;3.83;;;3.53;;
20379;SDS011;10349;48.666;8.948;2023-04-29T13:02:56;4.43;;;3.43;;
20379;SDS011;10349;48.666;8.948;2023-04-29T13:05:22;6.00;;;4.47;;
20379;SDS011;10349;48.666;8.948;2023-04-29T13:07:48;3.57;;;3.27;;
20379;SDS011;10349;48.666;8.948;2023-04-29T13:10:14;5.10;;;4.57;;
20379;SDS011;10349;48.666;8.948;2023-04-29T13:12:40;4.70;;;4.30;;
20379;SDS011;10349;48.666;8.948;2023-04-29T13:15:06;7.20;;;4.70;;
20379;SDS011;10349;48.666;8.948;2023-04-29T13:17:35;4.10;;;3.80;;
20379;SDS011;10349;48.666;8.948;2023-04-29T13:20:04;4.77;;;4.23;;
20379;SDS011;10349;48.666;8.948;2023-04-29T13:22:31;7.80;;;4.70;;
20379;SDS011;10349;48.666;8.948;2023-04-29T13:24:56;5.97;;;5.30;;
20379;SDS011;10349;48.666;8.948;2023-04-29T13:27:22;6.53;;;4.87;;
20379;SDS011;10349;48.666;8.948;2023-04-29T13:29:48;4.53;;;4.23;;
20379;SDS011;10349;48.666;8.948;2023-04-29T13:32:14;4.20;;;3.87;;
20379;SDS011;10349;48.666;8.948;2023-04-29T13:34:40;4.60;;;4.03;;
20379;SDS011;10349;48.666;8.948;2023-04-29T13:37:09;4.73;;;4.33;;
20379;SDS011;10349;48.666;8.948;2023-04-29T13:39:35;8.90;;;5.37;;
20379;SDS011;10349;48.666;8.948;2023-04-29T13:42:01;5.47;;;4.93;;
20379;SDS011;10349;48.666;8.948;2023-04-29T13:44:28;5.67;;;5.10;;
20379;SDS011;10349;48.666;8.948;2023-04-29T13:46:54;5.50;;;5.10;;
20379;SDS011;10349;48.666;8.948;2023-04-29T13:49:19;7.20;;;5.53;;
20379;SDS011;10349;48.666;8.948;2023-04-29T13:51:45;9.47;;;6.37;;
20379;SDS011;10349;48.666;8.948;2023-04-29T13:54:11;5.93;;;5.30;;
20379;SDS011;10349;48.666;8.948;2023-04-29T13:56:36;5.73;;;4.83;;
20379;SDS011;10349;48.666;8.948;2023-04-29T13:59:03;4.97;;;4.60;;
20379;SDS011;10349;48.666;8.948;2023-04-29T14:01:29;6.40;;;5.90;;
20379;SDS011;10349;48.666;8.948;2023-04-29T14:03:55;6.83;;;5.83;;
20379;SDS011;10349;48.666;8.948;2023-04-29T14:06:21;8.43;;;6.50;;
20379;SDS011;10349;48.666;8.948;2023-04-29T14:08:46;6.93;;;6.17;;
20379;SDS011;10349;48.666;8.948;2023-04-29T14:11:12;8.13;;;7.00;;
20379;SDS011;10349;48.666;8.948;2023-04-29T14:13:38;8.30;;;6.67;;
20379;SDS011;10349;48.666;8.948;2023-04-29T14:16:03;7.57;;;6.37;;
20379;SDS011;10349;48.666;8.948;2023-04-29T14:18:32;7.93;;;7.13;;
20379;SDS011;10349;48.666;8.948;2023-04-29T14:20:57;7.53;;;6.60;;
20379;SDS011;10349;48.666;8.948;2023-04-29T14:23:23;7.13;;;6.00;;
20379;SDS011;10349;48.666;8.948;2023-04-29T14:25:50;7.80;;;6.10;;
20379;SDS011;10349;48.666;8.948;2023-04-29T14:28:16;7.37;;;6.73;;
20379;SDS011;10349;48.666;8.948;2023-04-29T14:30:41;7.67;;;6.87;;
20379;SDS011;10349;48.666;8.948;2023-04-29T14:33:08;7.70;;;6.90;;
20379;SDS011;10349;48.666;8.948;2023-04-29T14:35:33;11.97;;;8.03;;
20379;SDS011;10349;48.666;8.948;2023-04-29T14:37:59;7.07;;;6.27;;
20379;SDS011;10349;48.666;8.948;2023-04-29T14:40:24;8.20;;;6.30;;
20379;SDS011;10349;48.666;8.948;2023-04-29T14:42:50;6.87;;;6.17;;
20379;SDS011;10349;48.666;8.948;2023-04-29T14:45:16;11.77;;;8.13;;
20379;SDS011;10349;48.666;8.948;2023-04-29T14:47:42;7.60;;;6.93;;
20379;SDS011;10349;48.666;8.948;2023-04-29T14:50:08;8.80;;;7.40;;
20379;SDS011;10349;48.666;8.948;2023-04-29T14:52:34;10.30;;;7.97;;
20379;SDS011;10349;48.666;8.948;2023-04-29T14:55:00;9.40;;;7.43;;
20379;SDS011;10349;48.666;8.948;2023-04-29T14:57:26;7.70;;;6.53;;
20379;SDS011;10349;48.666;8.948;2023-04-29T14:59:52;7.23;;;6.60;;
20379;SDS011;10349;48.666;8.948;2023-04-29T15:02:17;8.60;;;7.10;;
20379;SDS011;10349;48.666;8.948;2023-04-29T15:04:43;6.37;;;5.83;;
20379;SDS011;10349;48.666;8.948;2023-04-29T15:07:13;10.20;;;6.30;;
20379;SDS011;10349;48.666;8.948;2023-04-29T15:09:43;8.10;;;6.47;;
20379;SDS011;10349;48.666;8.948;2023-04-29T15:12:09;8.20;;;6.20;;
20379;SDS011;10349;48.666;8.948;2023-04-29T15:14:35;11.70;;;6.80;;
20379;SDS011;10349;48.666;8.948;2023-04-29T15:17:01;6.47;;;5.90;;
20379;SDS011;10349;48.666;8.948;2023-04-29T15:19:26;8.40;;;6.80;;
20379;SDS011;10349;48.666;8.948;2023-04-29T15:21:52;8.10;;;6.03;;
20379;SDS011;10349;48.666;8.948;2023-04-29T15:24:18;8.60;;;5.87;;
20379;SDS011;10349;48.666;8.948;2023-04-29T15:26:44;8.90;;;6.47;;